createdAt,value
2022-09-28T00:01:17.111Z,6.10
2022-09-28T00:03:46.226Z,6.30
2022-09-28T00:06:18.448Z,6.22
2022-09-28T00:08:45.877Z,6.13
2022-09-28T00:11:15.479Z,6.32
2022-09-28T00:13:43.946Z,6.40
2022-09-28T00:16:15.606Z,6.60
2022-09-28T00:18:43.708Z,6.18
2022-09-28T00:21:14.320Z,6.45
2022-09-28T00:24:01.296Z,6.63
2022-09-28T00:26:31.833Z,6.32
2022-09-28T00:29:02.091Z,6.70
2022-09-28T00:31:32.976Z,6.38
2022-09-28T00:34:02.518Z,6.38
2022-09-28T00:36:32.341Z,6.13
2022-09-28T00:39:05.881Z,7.07
2022-09-28T00:41:34.421Z,7.03
2022-09-28T00:44:41.928Z,7.50
2022-09-28T00:50:23.055Z,7.30
2022-09-28T00:53:02.366Z,7.35
2022-09-28T00:55:56.894Z,8.38
2022-09-28T00:58:32.754Z,8.82
2022-09-28T01:01:00.474Z,8.52
2022-09-28T01:03:29.291Z,7.65
2022-09-28T01:06:00.023Z,8.07
2022-09-28T01:08:29.764Z,7.75
2022-09-28T01:10:59.411Z,8.50
2022-09-28T01:13:28.456Z,8.73
2022-09-28T01:16:34.068Z,8.27
2022-09-28T01:19:47.290Z,8.63
2022-09-28T01:23:13.337Z,8.50
2022-09-28T01:25:54.257Z,8.60
2022-09-28T01:28:28.099Z,8.90
2022-09-28T01:31:14.039Z,9.00
2022-09-28T01:36:29.922Z,8.50
2022-09-28T01:39:06.200Z,8.57
2022-09-28T01:41:36.747Z,8.10
2022-09-28T01:44:07.733Z,7.93
2022-09-28T01:46:44.806Z,8.02
2022-09-28T01:49:34.722Z,7.95
2022-09-28T01:52:27.868Z,7.78
2022-09-28T01:55:14.204Z,8.18
2022-09-28T01:57:48.560Z,7.32
2022-09-28T02:00:18.481Z,8.20
2022-09-28T02:03:06.883Z,8.13
2022-09-28T02:05:54.289Z,8.27
2022-09-28T02:08:36.880Z,8.20
2022-09-28T02:11:15.161Z,8.45
2022-09-28T02:13:49.172Z,9.30
2022-09-28T02:16:35.597Z,10.18
2022-09-28T02:19:04.659Z,10.63
2022-09-28T02:21:46.456Z,9.90
2022-09-28T02:24:39.445Z,12.10
2022-09-28T02:27:31.823Z,11.30
2022-09-28T02:29:58.889Z,12.10
2022-09-28T02:32:28.283Z,10.68
2022-09-28T02:34:56.105Z,10.70
2022-09-28T02:37:23.193Z,9.75
2022-09-28T02:39:50.202Z,10.88
2022-09-28T02:43:02.457Z,11.80
2022-09-28T02:45:51.068Z,11.38
2022-09-28T02:49:10.463Z,11.15
2022-09-28T02:52:14.506Z,11.13
2022-09-28T02:55:20.446Z,11.73
2022-09-28T02:57:59.880Z,15.25
2022-09-28T03:00:27.992Z,15.32
2022-09-28T03:03:18.887Z,18.73
2022-09-28T03:06:19.519Z,18.33
2022-09-28T03:09:05.773Z,18.60
2022-09-28T03:11:52.199Z,17.70
2022-09-28T03:14:19.645Z,17.70
2022-09-28T03:16:52.216Z,18.48
2022-09-28T03:19:28.305Z,17.77
2022-09-28T03:21:55.668Z,18.92
2022-09-28T03:24:22.735Z,18.23
2022-09-28T03:26:50.530Z,19.40
2022-09-28T03:29:17.774Z,19.48
2022-09-28T03:31:49.057Z,20.00
2022-09-28T03:34:16.242Z,19.98
2022-09-28T03:36:43.263Z,20.45
2022-09-28T03:39:10.465Z,20.75
2022-09-28T03:41:38.993Z,20.58
2022-09-28T03:44:06.150Z,21.17
2022-09-28T03:46:34.149Z,19.25
2022-09-28T03:49:06.156Z,21.70
2022-09-28T03:51:33.097Z,22.20
2022-09-28T03:54:00.211Z,21.52
2022-09-28T03:56:27.338Z,27.42
2022-09-28T03:58:54.489Z,25.33
2022-09-28T04:01:21.587Z,20.05
2022-09-28T04:03:57.287Z,23.63
2022-09-28T04:06:26.043Z,22.63
2022-09-28T04:08:53.611Z,21.80
2022-09-28T04:11:20.829Z,21.80
2022-09-28T04:13:50.818Z,21.92
2022-09-28T04:16:18.971Z,24.80
2022-09-28T04:18:58.727Z,21.05
2022-09-28T04:21:44.938Z,22.27
2022-09-28T04:24:14.493Z,20.95
2022-09-28T04:26:41.720Z,20.23
2022-09-28T04:29:17.823Z,20.13
2022-09-28T04:32:05.912Z,20.58
2022-09-28T04:34:38.761Z,19.10
2022-09-28T04:37:09.153Z,19.15
2022-09-28T04:39:38.130Z,24.30
2022-09-28T04:42:06.473Z,22.85
2022-09-28T04:44:33.688Z,20.67
2022-09-28T04:47:06.592Z,22.27
2022-09-28T04:49:52.500Z,28.67
2022-09-28T04:52:27.222Z,21.58
2022-09-28T04:54:54.425Z,20.90
2022-09-28T04:57:21.896Z,17.83
2022-09-28T04:59:49.013Z,19.20
2022-09-28T05:02:17.039Z,19.40
2022-09-28T05:04:55.093Z,18.67
2022-09-28T05:07:59.046Z,21.02
2022-09-28T05:10:26.299Z,23.33
2022-09-28T05:12:53.477Z,19.33
2022-09-28T05:15:20.640Z,20.13
2022-09-28T05:17:48.668Z,25.90
2022-09-28T05:20:22.505Z,18.50
2022-09-28T05:22:49.482Z,19.17
2022-09-28T05:25:17.580Z,19.42
2022-09-28T05:31:09.386Z,17.83
2022-09-28T05:33:55.308Z,16.70
2022-09-28T05:36:23.890Z,17.77
2022-09-28T05:38:52.041Z,16.33
2022-09-28T05:41:19.136Z,19.90
2022-09-28T05:43:46.241Z,17.33
2022-09-28T05:46:13.408Z,20.77
2022-09-28T05:48:41.902Z,17.67
2022-09-28T05:51:10.146Z,17.38
2022-09-28T05:53:37.224Z,23.83
2022-09-28T05:56:05.162Z,16.65
2022-09-28T05:58:33.897Z,26.58
2022-09-28T06:01:01.330Z,17.75
2022-09-28T06:03:30.161Z,17.90
2022-09-28T06:06:00.522Z,16.20
2022-09-28T06:08:27.558Z,18.30
2022-09-28T06:11:12.495Z,17.70
2022-09-28T06:13:39.992Z,16.38
2022-09-28T06:16:08.508Z,15.07
2022-09-28T06:18:35.750Z,16.55
2022-09-28T06:21:25.719Z,17.75
2022-09-28T06:23:52.790Z,16.67
2022-09-28T06:26:20.845Z,17.02
2022-09-28T06:28:48.401Z,17.02
2022-09-28T06:31:19.064Z,16.58
2022-09-28T06:33:50.424Z,18.73
2022-09-28T06:36:20.779Z,16.67
2022-09-28T06:38:49.691Z,17.25
2022-09-28T06:41:17.417Z,17.10
2022-09-28T06:43:47.895Z,18.77
2022-09-28T06:46:33.529Z,17.88
2022-09-28T06:49:00.474Z,17.83
2022-09-28T06:52:02.774Z,18.08
2022-09-28T06:54:59.128Z,17.48
2022-09-28T06:57:43.213Z,17.65
2022-09-28T07:00:11.369Z,16.42
2022-09-28T07:02:38.526Z,18.10
2022-09-28T07:05:29.396Z,18.95
2022-09-28T07:08:20.659Z,17.27
2022-09-28T07:11:08.295Z,16.50
2022-09-28T07:13:51.948Z,20.23
2022-09-28T07:16:26.678Z,17.15
2022-09-28T07:18:55.565Z,16.23
2022-09-28T07:21:29.940Z,15.93
2022-09-28T07:24:06.064Z,16.25
2022-09-28T07:26:33.276Z,15.77
2022-09-28T07:29:13.887Z,16.50
2022-09-28T07:31:54.139Z,18.35
2022-09-28T07:34:48.671Z,18.15
2022-09-28T07:37:26.544Z,17.17
2022-09-28T07:40:12.947Z,15.35
2022-09-28T07:42:40.602Z,14.38
2022-09-28T07:45:08.575Z,14.25
2022-09-28T07:47:36.211Z,14.00
2022-09-28T07:50:22.432Z,13.20
2022-09-28T07:52:57.498Z,12.80
2022-09-28T07:55:29.806Z,13.20
2022-09-28T07:58:13.704Z,11.55
2022-09-28T08:01:15.506Z,12.00
2022-09-28T08:03:45.236Z,11.77
2022-09-28T08:06:17.055Z,11.52
2022-09-28T08:08:45.022Z,12.10
2022-09-28T08:11:17.758Z,11.60
2022-09-28T08:14:11.074Z,10.45
2022-09-28T08:16:55.925Z,10.20
2022-09-28T08:19:56.585Z,11.00
2022-09-28T08:22:23.721Z,12.00
2022-09-28T08:24:53.533Z,11.73
2022-09-28T08:27:20.508Z,11.20
2022-09-28T08:29:48.466Z,11.27
2022-09-28T08:32:38.217Z,11.57
2022-09-28T08:35:25.595Z,11.63
2022-09-28T08:38:21.904Z,12.43
2022-09-28T08:41:25.547Z,11.82
2022-09-28T08:44:51.713Z,12.27
2022-09-28T08:48:11.757Z,12.40
2022-09-28T08:51:06.184Z,12.15
2022-09-28T08:54:21.613Z,12.35
2022-09-28T08:57:21.177Z,11.90
2022-09-28T08:59:58.470Z,12.13
2022-09-28T09:02:34.171Z,11.93
2022-09-28T09:05:19.884Z,12.82
2022-09-28T09:08:22.372Z,12.18
2022-09-28T09:11:43.770Z,11.82
2022-09-28T09:14:49.175Z,11.20
2022-09-28T09:17:40.505Z,10.70
2022-09-28T09:21:16.820Z,11.38
2022-09-28T09:23:56.366Z,10.23
2022-09-28T09:26:39.480Z,11.45
2022-09-28T09:29:49.379Z,11.13
2022-09-28T09:33:04.728Z,10.60
2022-09-28T09:35:49.296Z,10.80
2022-09-28T09:38:43.494Z,10.27
2022-09-28T09:42:04.001Z,10.40
2022-09-28T09:45:03.647Z,10.40
2022-09-28T09:48:11.229Z,10.48
2022-09-28T09:51:00.294Z,9.05
2022-09-28T09:53:42.352Z,9.85
2022-09-28T09:56:25.564Z,9.55
2022-09-28T09:59:26.331Z,8.38
2022-09-28T10:02:29.205Z,10.07
2022-09-28T10:05:34.885Z,9.43
2022-09-28T10:08:09.548Z,10.98
2022-09-28T10:11:28.355Z,7.45
2022-09-28T10:13:56.882Z,7.95
2022-09-28T10:16:37.376Z,7.55
2022-09-28T10:19:13.203Z,5.93
2022-09-28T10:22:02.538Z,5.03
2022-09-28T10:24:34.328Z,4.68
2022-09-28T10:27:11.433Z,3.90
2022-09-28T10:30:08.192Z,3.63
2022-09-28T10:32:41.573Z,3.83
2022-09-28T10:35:20.482Z,3.50
2022-09-28T10:37:59.668Z,3.45
2022-09-28T10:40:51.876Z,3.08
2022-09-28T10:43:38.448Z,2.92
2022-09-28T10:46:13.555Z,2.28
2022-09-28T10:49:05.190Z,2.08
2022-09-28T10:51:46.830Z,2.83
2022-09-28T10:54:20.780Z,2.30
2022-09-28T10:56:53.013Z,2.88
2022-09-28T10:59:30.782Z,2.17
2022-09-28T11:02:38.150Z,1.90
2022-09-28T11:05:22.737Z,1.75
2022-09-28T11:07:52.662Z,2.10
2022-09-28T11:10:30.963Z,2.00
2022-09-28T11:13:08.787Z,1.95
2022-09-28T11:15:43.268Z,1.90
2022-09-28T11:18:32.305Z,2.00
2022-09-28T11:21:13.314Z,1.60
2022-09-28T11:24:19.026Z,1.65
2022-09-28T11:26:50.519Z,1.90
2022-09-28T11:29:46.076Z,1.60
2022-09-28T11:32:31.570Z,1.58
2022-09-28T11:36:18.697Z,1.55
2022-09-28T11:39:00.025Z,1.30
2022-09-28T11:42:28.702Z,1.42
2022-09-28T11:45:23.903Z,1.55
2022-09-28T11:48:13.340Z,1.40
2022-09-28T11:50:48.785Z,8.80
2022-09-28T11:53:21.964Z,1.70
2022-09-28T11:55:58.223Z,1.58
2022-09-28T11:58:34.729Z,1.70
2022-09-28T12:01:41.444Z,1.40
2022-09-28T12:04:25.389Z,1.15
2022-09-28T12:07:02.954Z,1.10
2022-09-28T12:09:43.338Z,1.20
2022-09-28T12:13:01.011Z,0.93
2022-09-28T12:16:07.431Z,1.23
2022-09-28T12:19:33.866Z,1.08
2022-09-28T12:22:09.828Z,1.00
2022-09-28T12:24:46.348Z,1.00
2022-09-28T12:27:25.227Z,0.98
2022-09-28T12:30:02.305Z,1.10
2022-09-28T12:32:56.274Z,0.90
2022-09-28T12:35:39.035Z,0.80
2022-09-28T12:38:40.995Z,0.90
2022-09-28T12:41:22.611Z,1.00
2022-09-28T12:44:03.985Z,0.75
2022-09-28T12:47:05.540Z,0.80
2022-09-28T12:50:33.692Z,0.93
2022-09-28T12:53:19.325Z,0.60
2022-09-28T12:56:01.179Z,0.60
2022-09-28T12:58:50.719Z,0.80
2022-09-28T13:01:45.762Z,0.80
2022-09-28T13:04:44.061Z,0.70
2022-09-28T13:07:55.281Z,0.45
2022-09-28T13:10:34.064Z,0.50
2022-09-28T13:13:16.103Z,0.70
2022-09-28T13:16:01.103Z,0.70
2022-09-28T13:19:11.377Z,0.70
2022-09-28T13:21:46.764Z,0.60
2022-09-28T13:24:33.382Z,0.40
2022-09-28T13:27:17.250Z,0.60
2022-09-28T13:29:44.738Z,0.50
2022-09-28T13:32:12.730Z,0.40
2022-09-28T13:34:40.150Z,0.57
2022-09-28T13:37:16.866Z,0.50
2022-09-28T13:39:51.956Z,0.40
2022-09-28T13:42:46.281Z,0.50
2022-09-28T13:45:25.167Z,0.40
2022-09-28T13:48:01.659Z,0.68
2022-09-28T13:51:10.038Z,0.40
2022-09-28T13:54:01.096Z,0.50
2022-09-28T13:56:44.772Z,0.60
2022-09-28T13:59:29.730Z,0.57
2022-09-28T14:02:30.258Z,0.40
2022-09-28T14:05:27.866Z,0.40
2022-09-28T14:08:46.349Z,0.98
2022-09-28T14:11:34.235Z,0.90
2022-09-28T14:14:14.221Z,0.70
2022-09-28T14:16:42.441Z,0.50
2022-09-28T14:19:24.181Z,0.60
2022-09-28T14:22:13.293Z,0.60
2022-09-28T14:25:10.891Z,0.57
2022-09-28T14:28:15.384Z,0.75
2022-09-28T14:30:42.696Z,0.47
2022-09-28T14:33:20.676Z,0.68
2022-09-28T14:35:50.450Z,0.85
2022-09-28T14:38:44.845Z,0.75
2022-09-28T14:41:35.224Z,0.80
2022-09-28T14:44:10.233Z,0.57
2022-09-28T14:46:48.078Z,0.70
2022-09-28T14:49:18.392Z,0.60
2022-09-28T14:51:48.444Z,1.10
2022-09-28T14:54:20.629Z,0.77
2022-09-28T14:56:53.926Z,0.60
2022-09-28T14:59:38.886Z,0.60
2022-09-28T15:02:17.415Z,1.33
2022-09-28T15:04:51.971Z,1.90
2022-09-28T15:07:50.594Z,1.70
2022-09-28T15:10:40.354Z,1.50
2022-09-28T15:13:24.996Z,1.20
2022-09-28T15:16:09.717Z,0.90
2022-09-28T15:19:01.448Z,0.82
2022-09-28T15:21:38.027Z,0.80
2022-09-28T15:24:31.794Z,0.68
2022-09-28T15:27:01.782Z,0.77
2022-09-28T15:29:33.276Z,0.98
2022-09-28T15:32:00.574Z,1.05
2022-09-28T15:34:52.922Z,0.70
2022-09-28T15:37:28.024Z,0.60
2022-09-28T15:39:57.881Z,0.60
2022-09-28T15:42:25.606Z,0.73
2022-09-28T15:45:26.754Z,0.93
2022-09-28T15:48:34.248Z,1.00
2022-09-28T15:51:10.830Z,2.17
2022-09-28T15:54:04.716Z,1.90
2022-09-28T15:56:32.245Z,3.40
2022-09-28T15:59:39.297Z,4.45
2022-09-28T16:02:18.304Z,4.97
2022-09-28T16:05:01.166Z,2.47
2022-09-28T16:07:35.203Z,1.00
2022-09-28T16:10:13.011Z,0.80
2022-09-28T16:13:06.671Z,0.80
2022-09-28T16:15:36.142Z,0.98
2022-09-28T16:18:20.665Z,1.00
2022-09-28T16:20:51.789Z,1.15
2022-09-28T16:23:33.049Z,1.10
2022-09-28T16:26:10.461Z,1.30
2022-09-28T16:28:41.216Z,1.00
2022-09-28T16:31:32.480Z,0.90
2022-09-28T16:34:19.976Z,1.20
2022-09-28T16:36:49.301Z,1.00
2022-09-28T16:39:18.815Z,1.00
2022-09-28T16:41:53.833Z,1.10
2022-09-28T16:44:32.677Z,1.10
2022-09-28T16:47:00.820Z,1.00
2022-09-28T16:49:31.542Z,1.20
2022-09-28T16:51:59.494Z,1.25
2022-09-28T16:54:45.088Z,1.55
2022-09-28T16:57:14.908Z,1.30
2022-09-28T16:59:41.999Z,1.38
2022-09-28T17:05:15.893Z,1.55
2022-09-28T17:07:44.276Z,1.48
2022-09-28T17:10:19.159Z,1.45
2022-09-28T17:12:46.223Z,1.40
2022-09-28T17:15:15.605Z,1.60
2022-09-28T17:17:42.590Z,1.50
2022-09-28T17:20:26.788Z,1.38
2022-09-28T17:22:54.089Z,1.48
2022-09-28T17:25:23.879Z,2.25
2022-09-28T17:27:51.915Z,2.47
2022-09-28T17:30:23.510Z,2.35
2022-09-28T17:32:52.772Z,2.08
2022-09-28T17:35:25.093Z,2.60
2022-09-28T17:37:52.717Z,2.97
2022-09-28T17:40:28.119Z,2.88
2022-09-28T17:42:59.732Z,3.13
2022-09-28T17:45:28.362Z,2.90
2022-09-28T17:47:55.915Z,2.65
2022-09-28T17:50:32.421Z,2.60
2022-09-28T17:53:02.839Z,1.80
2022-09-28T17:55:32.085Z,1.83
2022-09-28T17:58:23.092Z,2.88
2022-09-28T18:00:51.504Z,2.70
2022-09-28T18:03:22.620Z,2.70
2022-09-28T18:06:10.812Z,2.60
2022-09-28T18:08:41.530Z,2.33
2022-09-28T18:11:08.725Z,2.17
2022-09-28T18:13:35.713Z,2.10
2022-09-28T18:16:04.079Z,2.00
2022-09-28T18:18:33.313Z,1.80
2022-09-28T18:21:00.967Z,1.60
2022-09-28T18:23:27.916Z,2.00
2022-09-28T18:25:55.009Z,1.83
2022-09-28T18:28:23.019Z,1.90
2022-09-28T18:30:50.138Z,2.15
2022-09-28T18:33:17.147Z,3.00
2022-09-28T18:35:54.569Z,3.67
2022-09-28T18:38:21.688Z,3.20
2022-09-28T18:40:48.877Z,3.78
2022-09-28T18:43:16.631Z,4.65
2022-09-28T18:45:43.611Z,4.47
2022-09-28T18:48:10.637Z,5.05
2022-09-28T18:50:37.854Z,6.00
2022-09-28T18:53:13.737Z,6.07
2022-09-28T18:55:42.773Z,5.55
2022-09-28T18:58:11.499Z,5.43
2022-09-28T19:00:41.377Z,4.40
2022-09-28T19:03:11.295Z,5.10
2022-09-28T19:05:43.849Z,5.40
2022-09-28T19:08:10.835Z,5.38
2022-09-28T19:10:37.964Z,4.63
2022-09-28T19:13:05.101Z,4.93
2022-09-28T19:15:32.965Z,4.68
2022-09-28T19:18:00.108Z,4.10
2022-09-28T19:20:27.069Z,3.75
2022-09-28T19:22:54.053Z,3.10
2022-09-28T19:25:21.007Z,3.47
2022-09-28T19:27:48.724Z,3.17
2022-09-28T19:30:15.697Z,2.75
2022-09-28T19:32:42.821Z,2.63
2022-09-28T19:35:09.886Z,2.70
2022-09-28T19:37:39.305Z,3.15
2022-09-28T19:40:07.716Z,2.80
2022-09-28T19:42:36.160Z,2.65
2022-09-28T19:45:03.396Z,2.70
2022-09-28T19:47:31.796Z,2.83
2022-09-28T19:49:58.851Z,2.40
2022-09-28T19:52:25.933Z,2.75
2022-09-28T19:55:00.146Z,3.20
2022-09-28T19:57:32.493Z,2.88
2022-09-28T20:00:03.231Z,3.30
2022-09-28T20:02:34.788Z,2.92
2022-09-28T20:05:02.342Z,3.60
2022-09-28T20:07:32.757Z,3.40
2022-09-28T20:10:00.029Z,3.50
2022-09-28T20:12:27.155Z,3.60
2022-09-28T20:14:54.250Z,3.47
2022-09-28T20:17:21.724Z,4.78
2022-09-28T20:19:51.619Z,4.90
2022-09-28T20:22:19.885Z,5.28
2022-09-28T20:24:46.839Z,5.40
2022-09-28T20:27:14.039Z,4.90
2022-09-28T20:29:43.001Z,4.70
2022-09-28T20:32:11.510Z,5.03
2022-09-28T20:34:38.532Z,5.38
2022-09-28T20:37:05.615Z,5.22
2022-09-28T20:39:32.660Z,5.00
2022-09-28T20:41:59.845Z,4.63
2022-09-28T20:44:26.986Z,4.28
2022-09-28T20:46:53.990Z,5.35
2022-09-28T20:49:21.286Z,4.80
2022-09-28T20:51:48.391Z,5.07
2022-09-28T20:54:15.526Z,5.97
2022-09-28T20:56:42.493Z,6.75
2022-09-28T20:59:12.200Z,6.72
2022-09-28T21:01:40.309Z,7.15
2022-09-28T21:04:09.662Z,8.20
2022-09-28T21:06:40.346Z,7.25
2022-09-28T21:09:09.217Z,6.85
2022-09-28T21:11:36.827Z,7.63
2022-09-28T21:14:06.317Z,7.38
2022-09-28T21:16:35.091Z,6.88
2022-09-28T21:19:03.149Z,6.60
2022-09-28T21:21:30.187Z,6.70
2022-09-28T21:23:59.340Z,6.97
2022-09-28T21:26:29.095Z,7.10
2022-09-28T21:29:01.777Z,6.38
2022-09-28T21:31:47.421Z,6.32
2022-09-28T21:34:19.921Z,5.03
2022-09-28T21:36:51.013Z,6.55
2022-09-28T21:39:18.833Z,5.35
2022-09-28T21:41:46.191Z,6.03
2022-09-28T21:44:13.233Z,5.72
2022-09-28T21:46:40.357Z,5.03
2022-09-28T21:49:09.899Z,4.78
2022-09-28T21:51:37.982Z,4.93
2022-09-28T21:54:05.316Z,5.60
2022-09-28T21:56:32.448Z,5.13
2022-09-28T21:59:01.155Z,4.88
2022-09-28T22:01:29.284Z,5.00
2022-09-28T22:03:57.236Z,4.43
2022-09-28T22:06:30.143Z,4.35
2022-09-28T22:08:58.907Z,4.45
2022-09-28T22:11:28.619Z,3.95
2022-09-28T22:14:00.292Z,4.07
2022-09-28T22:16:31.609Z,4.20
2022-09-28T22:18:59.740Z,3.85
2022-09-28T22:21:32.661Z,4.00
2022-09-28T22:24:01.465Z,4.00
2022-09-28T22:26:31.608Z,3.92
2022-09-28T22:29:09.908Z,4.05
2022-09-28T22:31:40.297Z,4.45
2022-09-28T22:34:07.928Z,4.25
2022-09-28T22:36:35.088Z,4.45
2022-09-28T22:39:02.405Z,4.45
2022-09-28T22:41:30.072Z,3.83
2022-09-28T22:43:57.409Z,4.03
2022-09-28T22:46:27.937Z,4.20
2022-09-28T22:48:59.651Z,3.92
2022-09-28T22:51:28.899Z,4.07
2022-09-28T22:53:56.694Z,4.10
2022-09-28T22:56:24.529Z,4.35
2022-09-28T22:58:51.678Z,4.18
2022-09-28T23:01:28.511Z,4.15
2022-09-28T23:03:57.724Z,4.57
2022-09-28T23:06:28.275Z,4.60
2022-09-28T23:08:55.464Z,5.13
2022-09-28T23:11:22.721Z,4.80
2022-09-28T23:13:55.389Z,4.78
2022-09-28T23:16:25.398Z,5.07
2022-09-28T23:18:54.516Z,4.07
2022-09-28T23:21:25.312Z,4.20
2022-09-28T23:23:58.589Z,4.10
2022-09-28T23:26:30.581Z,3.83
2022-09-28T23:28:58.270Z,3.90
2022-09-28T23:31:29.318Z,3.97
2022-09-28T23:34:05.819Z,4.30
2022-09-28T23:36:34.061Z,4.15
2022-09-28T23:39:01.689Z,5.03
2022-09-28T23:41:29.109Z,4.40
2022-09-28T23:43:56.351Z,4.32
2022-09-28T23:46:23.920Z,4.45
2022-09-28T23:48:51.339Z,4.57
2022-09-28T23:51:18.487Z,4.13
2022-09-28T23:53:46.058Z,4.20
2022-09-28T23:56:14.498Z,3.90
2022-09-28T23:58:41.911Z,4.75
